AAY1535 KPIE-KFNT
Flight info
| Callsign | AAY1535 |
|---|---|
| Flight time | 2h 18m |
| Altitude | 34000 |
| Route | ENDED2 LACEN BRUTS Q118 VOSTK DQN TORRR HAZIT VHICL CITYE |
| Aircraft | A320/M-SDE3FGHIRWY/LB1 |
Departure
| Time | 2026-05-04 19:50 |
|---|---|
| Airport | St. Petersburg Clearwater International Airport (KPIE) |
Arrival
| Time | 2026-05-04 22:09 |
|---|---|
| Airport | Bishop International Airport (KFNT) |
| Time | Latitude | Longitude | Altitude | Speed | Heading |
|---|---|---|---|---|---|
| 2026-05-04 19:32 | 27.90738 | -82.69034 | 24 ft | 0 kts | 225° |
| 2026-05-04 19:41 | 27.90748 | -82.69022 | 24 ft | 4 kts | 228° |
| 2026-05-04 19:42 | 27.90765 | -82.68999 | 26 ft | 4 kts | 232° |
| 2026-05-04 19:42 | 27.90783 | -82.68975 | 24 ft | 4 kts | 224° |
| 2026-05-04 19:42 | 27.90802 | -82.68961 | 24 ft | 3 kts | 175° |
| 2026-05-04 19:42 | 27.90805 | -82.68961 | 26 ft | 0 kts | 171° |
| 2026-05-04 19:45 | 27.90800 | -82.68960 | 27 ft | 5 kts | 171° |
| 2026-05-04 19:45 | 27.90714 | -82.68945 | 24 ft | 18 kts | 171° |
| 2026-05-04 19:45 | 27.90588 | -82.68924 | 25 ft | 19 kts | 171° |
| 2026-05-04 19:46 | 27.90455 | -82.68901 | 24 ft | 20 kts | 171° |
| 2026-05-04 19:46 | 27.90315 | -82.68876 | 24 ft | 21 kts | 171° |
| 2026-05-04 19:46 | 27.90168 | -82.68858 | 23 ft | 22 kts | 183° |
| 2026-05-04 19:46 | 27.90005 | -82.68866 | 20 ft | 24 kts | 182° |
| 2026-05-04 19:47 | 27.89850 | -82.68853 | 23 ft | 18 kts | 169° |
| 2026-05-04 19:47 | 27.89732 | -82.68829 | 24 ft | 14 kts | 169° |
| 2026-05-04 19:47 | 27.89694 | -82.68750 | 23 ft | 11 kts | 81° |
| 2026-05-04 19:47 | 27.89698 | -82.68725 | 22 ft | 0 kts | 81° |
| 2026-05-04 19:48 | 27.89698 | -82.68723 | 22 ft | 2 kts | 81° |
| 2026-05-04 19:49 | 27.89716 | -82.68627 | 19 ft | 14 kts | 56° |
| 2026-05-04 19:49 | 27.89762 | -82.68621 | 19 ft | 1 kts | 352° |
| 2026-05-04 19:49 | 27.89774 | -82.68623 | 19 ft | 7 kts | 352° |
| 2026-05-04 19:49 | 27.90042 | -82.68667 | 21 ft | 75 kts | 351° |
| 2026-05-04 19:50 | 27.90769 | -82.68793 | 24 ft | 134 kts | 351° |
| 2026-05-04 19:50 | 27.91846 | -82.68978 | 68 ft | 174 kts | 352° |
| 2026-05-04 19:50 | 27.93025 | -82.69179 | 768 ft | 170 kts | 352° |
| 2026-05-04 19:50 | 27.94183 | -82.69405 | 1485 ft | 169 kts | 351° |
| 2026-05-04 19:51 | 27.95374 | -82.69674 | 2002 ft | 179 kts | 349° |
| 2026-05-04 19:51 | 27.96602 | -82.69994 | 2554 ft | 184 kts | 348° |
| 2026-05-04 19:51 | 27.97900 | -82.70314 | 2903 ft | 201 kts | 352° |
| 2026-05-04 19:51 | 27.99363 | -82.70594 | 3136 ft | 226 kts | 354° |
| 2026-05-04 19:52 | 28.00999 | -82.70888 | 3471 ft | 250 kts | 354° |
| 2026-05-04 19:52 | 28.02757 | -82.71202 | 3907 ft | 266 kts | 353° |
| 2026-05-04 19:52 | 28.04590 | -82.71535 | 4000 ft | 267 kts | 353° |
| 2026-05-04 19:52 | 28.06425 | -82.71876 | 4004 ft | 267 kts | 353° |
| 2026-05-04 19:53 | 28.08260 | -82.72220 | 4007 ft | 268 kts | 353° |
| 2026-05-04 19:53 | 28.10094 | -82.72568 | 4024 ft | 267 kts | 352° |
| 2026-05-04 19:53 | 28.11923 | -82.72918 | 4023 ft | 267 kts | 352° |
| 2026-05-04 19:53 | 28.13756 | -82.73268 | 4018 ft | 267 kts | 353° |
| 2026-05-04 19:54 | 28.15587 | -82.73613 | 4007 ft | 267 kts | 352° |
| 2026-05-04 19:54 | 28.17423 | -82.73961 | 4029 ft | 267 kts | 352° |
| 2026-05-04 19:54 | 28.19231 | -82.74304 | 4033 ft | 267 kts | 353° |
| 2026-05-04 19:54 | 28.21070 | -82.74654 | 4020 ft | 268 kts | 352° |
| 2026-05-04 19:55 | 28.22905 | -82.75002 | 4017 ft | 267 kts | 353° |
| 2026-05-04 19:55 | 28.24746 | -82.75351 | 4110 ft | 270 kts | 353° |
| 2026-05-04 19:55 | 28.26602 | -82.75704 | 4965 ft | 271 kts | 352° |
| 2026-05-04 19:55 | 28.28471 | -82.76059 | 5814 ft | 274 kts | 352° |
| 2026-05-04 19:56 | 28.30366 | -82.76417 | 6619 ft | 278 kts | 352° |
| 2026-05-04 19:56 | 28.32284 | -82.76782 | 7401 ft | 282 kts | 352° |
| 2026-05-04 19:56 | 28.34234 | -82.77152 | 8166 ft | 286 kts | 351° |
| 2026-05-04 19:56 | 28.36190 | -82.77524 | 8887 ft | 291 kts | 351° |
| 2026-05-04 19:57 | 28.38200 | -82.77905 | 9597 ft | 295 kts | 351° |
| 2026-05-04 19:57 | 28.40241 | -82.78295 | 10251 ft | 303 kts | 350° |
| 2026-05-04 19:57 | 28.42396 | -82.78699 | 10461 ft | 325 kts | 351° |
| 2026-05-04 19:57 | 28.44713 | -82.79095 | 10618 ft | 348 kts | 351° |
| 2026-05-04 19:58 | 28.47166 | -82.79492 | 10992 ft | 361 kts | 351° |
| 2026-05-04 19:58 | 28.49664 | -82.79886 | 11671 ft | 364 kts | 351° |
| 2026-05-04 19:58 | 28.52182 | -82.80283 | 12356 ft | 367 kts | 350° |
| 2026-05-04 19:58 | 28.54720 | -82.80687 | 13014 ft | 370 kts | 349° |
| 2026-05-04 19:59 | 28.57241 | -82.81095 | 13648 ft | 373 kts | 349° |
| 2026-05-04 19:59 | 28.59812 | -82.81529 | 14282 ft | 375 kts | 348° |
| 2026-05-04 19:59 | 28.62403 | -82.81991 | 14867 ft | 378 kts | 348° |
| 2026-05-04 19:59 | 28.65014 | -82.82471 | 15445 ft | 382 kts | 347° |
| 2026-05-04 20:00 | 28.67646 | -82.82958 | 16014 ft | 385 kts | 347° |
| 2026-05-04 20:00 | 28.70300 | -82.83447 | 16578 ft | 388 kts | 347° |
| 2026-05-04 20:00 | 28.72972 | -82.83939 | 17118 ft | 390 kts | 347° |
| 2026-05-04 20:00 | 28.75630 | -82.84426 | 17629 ft | 393 kts | 347° |
| 2026-05-04 20:01 | 28.78343 | -82.84919 | 18136 ft | 396 kts | 347° |
| 2026-05-04 20:01 | 28.81074 | -82.85411 | 18647 ft | 398 kts | 347° |
| 2026-05-04 20:01 | 28.83821 | -82.85904 | 19116 ft | 401 kts | 347° |
| 2026-05-04 20:01 | 28.86590 | -82.86402 | 19583 ft | 404 kts | 347° |
| 2026-05-04 20:02 | 28.89378 | -82.86904 | 20052 ft | 407 kts | 346° |
| 2026-05-04 20:02 | 28.92179 | -82.87413 | 20499 ft | 409 kts | 346° |
| 2026-05-04 20:02 | 28.94998 | -82.87924 | 20948 ft | 411 kts | 346° |
| 2026-05-04 20:02 | 28.97831 | -82.88435 | 21374 ft | 413 kts | 346° |
| 2026-05-04 20:03 | 29.00645 | -82.88941 | 21781 ft | 416 kts | 346° |
| 2026-05-04 20:03 | 29.03510 | -82.89460 | 22187 ft | 418 kts | 346° |
| 2026-05-04 20:03 | 29.06392 | -82.89984 | 22587 ft | 421 kts | 346° |
| 2026-05-04 20:03 | 29.09290 | -82.90509 | 22991 ft | 423 kts | 346° |
| 2026-05-04 20:04 | 29.12199 | -82.91037 | 23382 ft | 425 kts | 345° |
| 2026-05-04 20:04 | 29.15126 | -82.91570 | 23750 ft | 427 kts | 345° |
| 2026-05-04 20:04 | 29.18066 | -82.92110 | 24108 ft | 429 kts | 345° |
| 2026-05-04 20:04 | 29.21019 | -82.92655 | 24460 ft | 430 kts | 345° |
| 2026-05-04 20:05 | 29.23985 | -82.93199 | 24796 ft | 433 kts | 345° |
| 2026-05-04 20:05 | 29.26927 | -82.93732 | 25140 ft | 435 kts | 345° |
| 2026-05-04 20:05 | 29.29918 | -82.94273 | 25478 ft | 436 kts | 345° |
| 2026-05-04 20:05 | 29.32921 | -82.94821 | 25824 ft | 437 kts | 345° |
| 2026-05-04 20:06 | 29.35933 | -82.95375 | 26156 ft | 439 kts | 344° |
| 2026-05-04 20:06 | 29.38952 | -82.95929 | 26500 ft | 440 kts | 344° |
| 2026-05-04 20:06 | 29.41982 | -82.96487 | 26812 ft | 442 kts | 344° |
| 2026-05-04 20:06 | 29.45023 | -82.97048 | 27116 ft | 443 kts | 344° |
| 2026-05-04 20:07 | 29.48071 | -82.97605 | 27406 ft | 445 kts | 344° |
| 2026-05-04 20:07 | 29.51110 | -82.98246 | 27677 ft | 441 kts | 339° |
| 2026-05-04 20:07 | 29.53956 | -82.99338 | 27945 ft | 435 kts | 331° |
| 2026-05-04 20:07 | 29.56758 | -83.00672 | 28204 ft | 436 kts | 330° |
| 2026-05-04 20:08 | 29.59566 | -83.02013 | 28475 ft | 438 kts | 330° |
| 2026-05-04 20:08 | 29.62381 | -83.03362 | 28739 ft | 439 kts | 330° |
| 2026-05-04 20:08 | 29.65196 | -83.04714 | 29007 ft | 439 kts | 330° |
| 2026-05-04 20:08 | 29.68012 | -83.06064 | 29353 ft | 438 kts | 330° |
| 2026-05-04 20:09 | 29.70818 | -83.07405 | 29722 ft | 436 kts | 330° |
| 2026-05-04 20:09 | 29.73614 | -83.08740 | 30082 ft | 434 kts | 330° |
| 2026-05-04 20:09 | 29.76360 | -83.10050 | 30434 ft | 433 kts | 330° |
| 2026-05-04 20:09 | 29.79138 | -83.11378 | 30765 ft | 431 kts | 330° |
| 2026-05-04 20:10 | 29.81900 | -83.12699 | 31087 ft | 431 kts | 330° |
| 2026-05-04 20:10 | 29.84668 | -83.14018 | 31397 ft | 430 kts | 330° |
| 2026-05-04 20:10 | 29.87427 | -83.15333 | 31716 ft | 429 kts | 330° |
| 2026-05-04 20:10 | 29.90182 | -83.16649 | 32022 ft | 428 kts | 330° |
| 2026-05-04 20:11 | 29.92927 | -83.17969 | 32328 ft | 427 kts | 330° |
| 2026-05-04 20:11 | 29.95666 | -83.19287 | 32648 ft | 426 kts | 329° |
| 2026-05-04 20:11 | 29.98358 | -83.20584 | 32949 ft | 425 kts | 329° |
| 2026-05-04 20:11 | 30.01083 | -83.21895 | 33240 ft | 424 kts | 329° |
| 2026-05-04 20:12 | 30.03800 | -83.23203 | 33538 ft | 423 kts | 329° |
| 2026-05-04 20:12 | 30.06511 | -83.24505 | 33825 ft | 421 kts | 329° |
| 2026-05-04 20:12 | 30.09216 | -83.25802 | 34017 ft | 421 kts | 329° |
| 2026-05-04 20:13 | 30.14643 | -83.28409 | 34074 ft | 423 kts | 329° |
| 2026-05-04 20:13 | 30.20070 | -83.31030 | 34073 ft | 422 kts | 329° |
| 2026-05-04 20:14 | 30.25455 | -83.33634 | 34074 ft | 422 kts | 329° |
| 2026-05-04 20:14 | 30.30877 | -83.36251 | 34073 ft | 422 kts | 329° |
| 2026-05-04 20:15 | 30.36296 | -83.38861 | 34074 ft | 422 kts | 329° |
| 2026-05-04 20:15 | 30.41707 | -83.41486 | 34072 ft | 422 kts | 329° |
| 2026-05-04 20:16 | 30.47084 | -83.44100 | 34076 ft | 422 kts | 329° |
| 2026-05-04 20:16 | 30.52503 | -83.46728 | 34079 ft | 422 kts | 329° |
| 2026-05-04 20:17 | 30.57922 | -83.49356 | 34084 ft | 422 kts | 329° |
| 2026-05-04 20:17 | 30.63334 | -83.51990 | 34087 ft | 422 kts | 329° |
| 2026-05-04 20:18 | 30.68708 | -83.54601 | 34079 ft | 422 kts | 329° |
| 2026-05-04 20:18 | 30.74117 | -83.57242 | 34080 ft | 422 kts | 329° |
| 2026-05-04 20:19 | 30.79532 | -83.59884 | 34078 ft | 422 kts | 329° |
| 2026-05-04 20:19 | 30.84945 | -83.62530 | 34085 ft | 422 kts | 329° |
| 2026-05-04 20:20 | 30.90315 | -83.65161 | 34082 ft | 421 kts | 329° |
| 2026-05-04 20:20 | 30.95720 | -83.67802 | 34083 ft | 421 kts | 329° |
| 2026-05-04 20:21 | 31.01121 | -83.70448 | 34085 ft | 421 kts | 329° |
| 2026-05-04 20:21 | 31.09217 | -83.74429 | 34096 ft | 421 kts | 329° |
| 2026-05-04 20:22 | 31.14572 | -83.77070 | 34096 ft | 420 kts | 329° |
| 2026-05-04 20:22 | 31.19955 | -83.79727 | 34093 ft | 420 kts | 329° |
| 2026-05-04 20:23 | 31.25342 | -83.82378 | 34099 ft | 420 kts | 329° |
| 2026-05-04 20:23 | 31.30722 | -83.85030 | 34088 ft | 420 kts | 329° |
| 2026-05-04 20:24 | 31.36099 | -83.87692 | 34082 ft | 420 kts | 329° |
| 2026-05-04 20:24 | 31.41439 | -83.90340 | 34080 ft | 420 kts | 329° |
| 2026-05-04 20:25 | 31.46818 | -83.93005 | 34083 ft | 420 kts | 328° |
| 2026-05-04 20:25 | 31.52238 | -83.95588 | 34085 ft | 426 kts | 334° |
| 2026-05-04 20:26 | 31.58083 | -83.97009 | 34091 ft | 434 kts | 340° |
| 2026-05-04 20:26 | 31.64009 | -83.98321 | 34090 ft | 433 kts | 340° |
| 2026-05-04 20:27 | 31.69926 | -83.99643 | 34096 ft | 433 kts | 340° |
| 2026-05-04 20:27 | 31.75849 | -84.00957 | 34090 ft | 433 kts | 340° |
| 2026-05-04 20:28 | 31.81765 | -84.02274 | 34088 ft | 433 kts | 340° |
| 2026-05-04 20:28 | 31.87639 | -84.03586 | 34081 ft | 433 kts | 340° |
| 2026-05-04 20:29 | 31.93552 | -84.04909 | 34077 ft | 432 kts | 340° |
| 2026-05-04 20:29 | 31.99459 | -84.06230 | 34071 ft | 432 kts | 340° |
| 2026-05-04 20:30 | 32.05371 | -84.07550 | 34067 ft | 432 kts | 340° |
| 2026-05-04 20:30 | 32.11237 | -84.08867 | 34059 ft | 432 kts | 340° |
| 2026-05-04 20:31 | 32.17145 | -84.10203 | 34055 ft | 432 kts | 340° |
| 2026-05-04 20:31 | 32.23058 | -84.11537 | 34053 ft | 433 kts | 340° |
| 2026-05-04 20:32 | 32.28979 | -84.12863 | 34055 ft | 433 kts | 340° |
| 2026-05-04 20:32 | 32.34856 | -84.14179 | 34057 ft | 433 kts | 340° |
| 2026-05-04 20:33 | 32.40769 | -84.15514 | 34056 ft | 432 kts | 340° |
| 2026-05-04 20:33 | 32.46676 | -84.16851 | 34059 ft | 432 kts | 340° |
| 2026-05-04 20:34 | 32.52591 | -84.18188 | 34065 ft | 432 kts | 340° |
| 2026-05-04 20:34 | 32.58499 | -84.19534 | 34068 ft | 432 kts | 340° |
| 2026-05-04 20:35 | 32.64367 | -84.20872 | 34072 ft | 432 kts | 341° |
| 2026-05-04 20:35 | 32.70277 | -84.22213 | 34074 ft | 433 kts | 341° |
| 2026-05-04 20:36 | 32.76164 | -84.23559 | 34074 ft | 433 kts | 341° |
| 2026-05-04 20:36 | 32.82089 | -84.24916 | 34083 ft | 434 kts | 341° |
| 2026-05-04 20:37 | 32.88008 | -84.26265 | 34083 ft | 433 kts | 341° |
| 2026-05-04 20:37 | 32.93887 | -84.27604 | 34085 ft | 433 kts | 341° |
| 2026-05-04 20:38 | 32.99810 | -84.28943 | 34081 ft | 433 kts | 342° |
| 2026-05-04 20:38 | 33.05732 | -84.30291 | 34077 ft | 433 kts | 341° |
| 2026-05-04 20:39 | 33.11653 | -84.31652 | 34074 ft | 434 kts | 342° |
| 2026-05-04 20:39 | 33.17544 | -84.33008 | 34074 ft | 434 kts | 342° |
| 2026-05-04 20:40 | 33.23475 | -84.34377 | 34072 ft | 434 kts | 342° |
| 2026-05-04 20:40 | 33.29411 | -84.35744 | 34074 ft | 435 kts | 342° |
| 2026-05-04 20:41 | 33.35352 | -84.37110 | 34083 ft | 434 kts | 342° |
| 2026-05-04 20:41 | 33.41287 | -84.38481 | 34086 ft | 434 kts | 342° |
| 2026-05-04 20:42 | 33.47179 | -84.39846 | 34091 ft | 435 kts | 342° |
| 2026-05-04 20:42 | 33.53116 | -84.41216 | 34085 ft | 435 kts | 342° |
| 2026-05-04 20:43 | 33.56085 | -84.41905 | 34083 ft | 435 kts | 342° |
| 2026-05-04 20:43 | 33.64911 | -84.43967 | 34076 ft | 435 kts | 343° |
| 2026-05-04 20:44 | 33.70865 | -84.45276 | 34067 ft | 435 kts | 343° |
| 2026-05-04 20:44 | 33.76828 | -84.46566 | 34062 ft | 436 kts | 343° |
| 2026-05-04 20:45 | 33.82793 | -84.47870 | 34060 ft | 436 kts | 343° |
| 2026-05-04 20:45 | 33.88720 | -84.49170 | 34057 ft | 436 kts | 343° |
| 2026-05-04 20:46 | 33.94678 | -84.50490 | 34050 ft | 436 kts | 343° |
| 2026-05-04 20:46 | 34.00645 | -84.51818 | 34048 ft | 436 kts | 343° |
| 2026-05-04 20:47 | 34.06690 | -84.52734 | 34052 ft | 440 kts | 349° |
| 2026-05-04 20:47 | 34.12752 | -84.53354 | 34056 ft | 440 kts | 349° |
| 2026-05-04 20:48 | 34.18844 | -84.53992 | 34056 ft | 439 kts | 349° |
| 2026-05-04 20:48 | 34.24937 | -84.54632 | 34054 ft | 439 kts | 349° |
| 2026-05-04 20:49 | 34.31031 | -84.55270 | 34056 ft | 440 kts | 349° |
| 2026-05-04 20:49 | 34.37081 | -84.55903 | 34059 ft | 439 kts | 349° |
| 2026-05-04 20:50 | 34.43172 | -84.56550 | 34059 ft | 439 kts | 349° |
| 2026-05-04 20:50 | 34.49264 | -84.57191 | 34059 ft | 439 kts | 349° |
| 2026-05-04 20:51 | 34.55356 | -84.57831 | 34057 ft | 439 kts | 349° |
| 2026-05-04 20:51 | 34.61403 | -84.58471 | 34061 ft | 439 kts | 349° |
| 2026-05-04 20:52 | 34.67489 | -84.59108 | 34067 ft | 439 kts | 349° |
| 2026-05-04 20:52 | 34.73566 | -84.59754 | 34069 ft | 438 kts | 349° |
| 2026-05-04 20:53 | 34.79648 | -84.60402 | 34067 ft | 438 kts | 349° |
| 2026-05-04 20:53 | 34.85723 | -84.61044 | 34060 ft | 438 kts | 348° |
| 2026-05-04 20:54 | 34.91750 | -84.61688 | 34051 ft | 438 kts | 348° |
| 2026-05-04 20:54 | 34.97815 | -84.62342 | 34045 ft | 437 kts | 348° |
| 2026-05-04 20:55 | 35.03876 | -84.63005 | 34040 ft | 437 kts | 348° |
| 2026-05-04 20:55 | 35.09897 | -84.63650 | 34033 ft | 437 kts | 348° |
| 2026-05-04 20:56 | 35.15953 | -84.64295 | 34029 ft | 437 kts | 348° |
| 2026-05-04 20:56 | 35.22000 | -84.64941 | 34028 ft | 436 kts | 348° |
| 2026-05-04 20:57 | 35.28042 | -84.65576 | 34017 ft | 436 kts | 348° |
| 2026-05-04 20:57 | 35.34085 | -84.66212 | 34020 ft | 436 kts | 348° |
| 2026-05-04 20:58 | 35.40080 | -84.66864 | 34026 ft | 435 kts | 348° |
| 2026-05-04 20:58 | 35.46113 | -84.67528 | 34021 ft | 435 kts | 348° |
| 2026-05-04 20:59 | 35.52142 | -84.68181 | 34025 ft | 435 kts | 348° |
| 2026-05-04 20:59 | 35.58169 | -84.68828 | 34017 ft | 435 kts | 348° |
| 2026-05-04 21:00 | 35.64154 | -84.69475 | 34018 ft | 435 kts | 348° |
| 2026-05-04 21:00 | 35.70183 | -84.70130 | 34018 ft | 435 kts | 348° |
| 2026-05-04 21:01 | 35.76202 | -84.70786 | 34012 ft | 434 kts | 348° |
| 2026-05-04 21:01 | 35.82218 | -84.71436 | 34019 ft | 434 kts | 348° |
| 2026-05-04 21:02 | 35.88230 | -84.72084 | 34016 ft | 434 kts | 348° |
| 2026-05-04 21:02 | 35.94200 | -84.72736 | 34015 ft | 433 kts | 348° |
| 2026-05-04 21:03 | 36.00206 | -84.73396 | 34013 ft | 433 kts | 348° |
| 2026-05-04 21:03 | 36.06211 | -84.74056 | 34007 ft | 433 kts | 348° |
| 2026-05-04 21:04 | 36.12219 | -84.74716 | 34011 ft | 433 kts | 348° |
| 2026-05-04 21:04 | 36.18183 | -84.75373 | 34009 ft | 433 kts | 348° |
| 2026-05-04 21:05 | 36.24189 | -84.76035 | 34005 ft | 433 kts | 348° |
| 2026-05-04 21:05 | 36.30193 | -84.76704 | 34003 ft | 433 kts | 348° |
| 2026-05-04 21:06 | 36.36199 | -84.77366 | 33994 ft | 433 kts | 348° |
| 2026-05-04 21:06 | 36.42166 | -84.77994 | 33992 ft | 435 kts | 351° |
| 2026-05-04 21:07 | 36.48269 | -84.77857 | 33985 ft | 439 kts | 354° |
| 2026-05-04 21:07 | 36.54376 | -84.77671 | 33979 ft | 439 kts | 354° |
| 2026-05-04 21:08 | 36.60490 | -84.77492 | 33977 ft | 440 kts | 354° |
| 2026-05-04 21:08 | 36.66566 | -84.77320 | 33976 ft | 440 kts | 354° |
| 2026-05-04 21:09 | 36.72688 | -84.77147 | 33957 ft | 441 kts | 355° |
| 2026-05-04 21:09 | 36.78828 | -84.76971 | 33948 ft | 442 kts | 355° |
| 2026-05-04 21:10 | 36.84985 | -84.76796 | 33942 ft | 443 kts | 355° |
| 2026-05-04 21:10 | 36.91158 | -84.76608 | 33947 ft | 444 kts | 355° |
| 2026-05-04 21:11 | 36.97298 | -84.76424 | 33946 ft | 444 kts | 355° |
| 2026-05-04 21:11 | 37.03483 | -84.76238 | 33943 ft | 445 kts | 355° |
| 2026-05-04 21:12 | 37.09672 | -84.76056 | 33933 ft | 445 kts | 355° |
| 2026-05-04 21:12 | 37.15864 | -84.75878 | 33932 ft | 445 kts | 355° |
| 2026-05-04 21:13 | 37.22009 | -84.75698 | 33930 ft | 445 kts | 355° |
| 2026-05-04 21:13 | 37.28205 | -84.75510 | 33927 ft | 445 kts | 355° |
| 2026-05-04 21:14 | 37.34404 | -84.75322 | 33928 ft | 446 kts | 355° |
| 2026-05-04 21:14 | 37.40604 | -84.75126 | 33930 ft | 446 kts | 355° |
| 2026-05-04 21:15 | 37.46766 | -84.74926 | 33929 ft | 446 kts | 356° |
| 2026-05-04 21:15 | 37.52959 | -84.74722 | 33928 ft | 445 kts | 356° |
| 2026-05-04 21:16 | 37.59153 | -84.74529 | 33927 ft | 445 kts | 355° |
| 2026-05-04 21:16 | 37.65354 | -84.74335 | 33927 ft | 446 kts | 356° |
| 2026-05-04 21:17 | 37.71553 | -84.74137 | 33928 ft | 446 kts | 356° |
| 2026-05-04 21:17 | 37.77714 | -84.73947 | 33928 ft | 446 kts | 356° |
| 2026-05-04 21:18 | 37.83918 | -84.73747 | 33925 ft | 446 kts | 356° |
| 2026-05-04 21:18 | 37.90121 | -84.73547 | 33921 ft | 446 kts | 356° |
| 2026-05-04 21:19 | 37.96325 | -84.73352 | 33917 ft | 446 kts | 356° |
| 2026-05-04 21:19 | 38.02487 | -84.73165 | 33912 ft | 446 kts | 356° |
| 2026-05-04 21:20 | 38.08687 | -84.72974 | 33911 ft | 445 kts | 356° |
| 2026-05-04 21:20 | 38.14866 | -84.72787 | 33909 ft | 445 kts | 356° |
| 2026-05-04 21:21 | 38.21062 | -84.72596 | 33903 ft | 445 kts | 356° |
| 2026-05-04 21:21 | 38.27217 | -84.72408 | 33908 ft | 446 kts | 356° |
| 2026-05-04 21:22 | 38.33417 | -84.72216 | 33900 ft | 445 kts | 356° |
| 2026-05-04 21:22 | 38.39614 | -84.72023 | 33902 ft | 445 kts | 356° |
| 2026-05-04 21:23 | 38.45803 | -84.71821 | 33893 ft | 444 kts | 357° |
| 2026-05-04 21:23 | 38.51984 | -84.70802 | 33892 ft | 450 kts | 4° |
| 2026-05-04 21:24 | 38.58123 | -84.69538 | 33888 ft | 450 kts | 4° |
| 2026-05-04 21:24 | 38.64302 | -84.68266 | 33883 ft | 450 kts | 4° |
| 2026-05-04 21:25 | 38.70480 | -84.67001 | 33880 ft | 449 kts | 4° |
| 2026-05-04 21:25 | 38.76654 | -84.65735 | 33882 ft | 449 kts | 4° |
| 2026-05-04 21:26 | 38.82784 | -84.64477 | 33877 ft | 449 kts | 4° |
| 2026-05-04 21:26 | 38.88955 | -84.63217 | 33875 ft | 449 kts | 4° |
| 2026-05-04 21:27 | 38.95126 | -84.61950 | 33874 ft | 449 kts | 4° |
| 2026-05-04 21:27 | 39.01287 | -84.60677 | 33874 ft | 448 kts | 5° |
| 2026-05-04 21:28 | 39.07409 | -84.59414 | 33873 ft | 448 kts | 5° |
| 2026-05-04 21:28 | 39.13559 | -84.58144 | 33872 ft | 447 kts | 5° |
| 2026-05-04 21:29 | 39.19700 | -84.56874 | 33865 ft | 447 kts | 5° |
| 2026-05-04 21:29 | 39.25842 | -84.55602 | 33863 ft | 447 kts | 5° |
| 2026-05-04 21:30 | 39.31943 | -84.54344 | 33864 ft | 447 kts | 5° |
| 2026-05-04 21:30 | 39.38077 | -84.53081 | 33866 ft | 446 kts | 5° |
| 2026-05-04 21:31 | 39.47269 | -84.51174 | 33869 ft | 446 kts | 5° |
| 2026-05-04 21:32 | 39.53385 | -84.49877 | 33864 ft | 446 kts | 5° |
| 2026-05-04 21:32 | 39.59461 | -84.48580 | 33860 ft | 445 kts | 5° |
| 2026-05-04 21:33 | 39.65571 | -84.47287 | 33854 ft | 444 kts | 5° |
| 2026-05-04 21:33 | 39.71672 | -84.46013 | 33854 ft | 444 kts | 5° |
| 2026-05-04 21:34 | 39.77771 | -84.44736 | 33852 ft | 444 kts | 6° |
| 2026-05-04 21:34 | 39.83826 | -84.43462 | 33846 ft | 443 kts | 6° |
| 2026-05-04 21:35 | 39.89916 | -84.42173 | 33836 ft | 443 kts | 6° |
| 2026-05-04 21:35 | 39.95997 | -84.40882 | 33826 ft | 443 kts | 6° |
| 2026-05-04 21:36 | 40.02090 | -84.39759 | 33822 ft | 440 kts | 359° |
| 2026-05-04 21:36 | 40.08179 | -84.39873 | 33814 ft | 437 kts | 355° |
| 2026-05-04 21:37 | 40.14223 | -84.40028 | 33807 ft | 438 kts | 355° |
| 2026-05-04 21:37 | 40.20311 | -84.40183 | 33801 ft | 438 kts | 355° |
| 2026-05-04 21:38 | 40.26396 | -84.40340 | 33794 ft | 437 kts | 355° |
| 2026-05-04 21:38 | 40.32481 | -84.40503 | 33788 ft | 438 kts | 355° |
| 2026-05-04 21:39 | 40.38529 | -84.40662 | 33785 ft | 438 kts | 355° |
| 2026-05-04 21:39 | 40.44619 | -84.40821 | 33779 ft | 438 kts | 355° |
| 2026-05-04 21:40 | 40.50709 | -84.40989 | 33765 ft | 438 kts | 355° |
| 2026-05-04 21:40 | 40.56803 | -84.41154 | 33780 ft | 438 kts | 355° |
| 2026-05-04 21:41 | 40.62857 | -84.41324 | 33771 ft | 438 kts | 355° |
| 2026-05-04 21:41 | 40.68953 | -84.41490 | 33766 ft | 438 kts | 355° |
| 2026-05-04 21:42 | 40.75029 | -84.41893 | 33758 ft | 434 kts | 347° |
| 2026-05-04 21:42 | 40.80941 | -84.43434 | 33754 ft | 433 kts | 345° |
| 2026-05-04 21:43 | 40.86856 | -84.44997 | 33634 ft | 434 kts | 345° |
| 2026-05-04 21:43 | 40.89818 | -84.45780 | 33383 ft | 434 kts | 345° |
| 2026-05-04 21:43 | 40.92739 | -84.46556 | 33136 ft | 434 kts | 345° |
| 2026-05-04 21:43 | 40.95702 | -84.47343 | 32885 ft | 435 kts | 345° |
| 2026-05-04 21:44 | 40.98671 | -84.48135 | 32638 ft | 436 kts | 345° |
| 2026-05-04 21:44 | 41.01646 | -84.48930 | 32384 ft | 436 kts | 345° |
| 2026-05-04 21:44 | 41.04622 | -84.49725 | 32138 ft | 437 kts | 345° |
| 2026-05-04 21:44 | 41.07609 | -84.50527 | 31883 ft | 438 kts | 345° |
| 2026-05-04 21:45 | 41.10603 | -84.51330 | 31632 ft | 439 kts | 345° |
| 2026-05-04 21:45 | 41.13599 | -84.52131 | 31383 ft | 440 kts | 345° |
| 2026-05-04 21:45 | 41.16564 | -84.52923 | 31133 ft | 441 kts | 345° |
| 2026-05-04 21:45 | 41.19574 | -84.53727 | 30882 ft | 442 kts | 345° |
| 2026-05-04 21:46 | 41.22593 | -84.54533 | 30636 ft | 443 kts | 345° |
| 2026-05-04 21:46 | 41.25617 | -84.55343 | 30387 ft | 444 kts | 345° |
| 2026-05-04 21:46 | 41.28649 | -84.56159 | 30137 ft | 445 kts | 345° |
| 2026-05-04 21:46 | 41.31686 | -84.56979 | 29884 ft | 446 kts | 345° |
| 2026-05-04 21:47 | 41.34729 | -84.57798 | 29637 ft | 447 kts | 345° |
| 2026-05-04 21:47 | 41.37780 | -84.58619 | 29386 ft | 448 kts | 345° |
| 2026-05-04 21:47 | 41.40835 | -84.59442 | 29136 ft | 448 kts | 345° |
| 2026-05-04 21:47 | 41.43850 | -84.60252 | 28888 ft | 448 kts | 345° |
| 2026-05-04 21:48 | 41.46898 | -84.61072 | 28642 ft | 446 kts | 345° |
| 2026-05-04 21:48 | 41.49938 | -84.61890 | 28387 ft | 445 kts | 345° |
| 2026-05-04 21:48 | 41.52967 | -84.62711 | 28133 ft | 444 kts | 344° |
| 2026-05-04 21:48 | 41.55987 | -84.63533 | 27885 ft | 442 kts | 344° |
| 2026-05-04 21:49 | 41.58997 | -84.64356 | 27634 ft | 441 kts | 344° |
| 2026-05-04 21:49 | 41.61996 | -84.65175 | 27388 ft | 439 kts | 344° |
| 2026-05-04 21:49 | 41.64989 | -84.65994 | 27133 ft | 438 kts | 344° |
| 2026-05-04 21:49 | 41.67974 | -84.66808 | 26881 ft | 438 kts | 344° |
| 2026-05-04 21:50 | 41.70913 | -84.67604 | 26634 ft | 436 kts | 344° |
| 2026-05-04 21:50 | 41.73883 | -84.68407 | 26383 ft | 435 kts | 344° |
| 2026-05-04 21:50 | 41.76841 | -84.69208 | 26132 ft | 433 kts | 344° |
| 2026-05-04 21:50 | 41.79788 | -84.70011 | 25881 ft | 432 kts | 344° |
| 2026-05-04 21:51 | 41.82727 | -84.70818 | 25622 ft | 430 kts | 344° |
| 2026-05-04 21:51 | 41.85657 | -84.71616 | 25381 ft | 429 kts | 345° |
| 2026-05-04 21:51 | 41.88638 | -84.72064 | 25137 ft | 433 kts | 353° |
| 2026-05-04 21:51 | 41.91660 | -84.71989 | 24883 ft | 435 kts | 357° |
| 2026-05-04 21:52 | 41.94635 | -84.71848 | 24634 ft | 434 kts | 357° |
| 2026-05-04 21:52 | 41.97647 | -84.71710 | 24387 ft | 432 kts | 357° |
| 2026-05-04 21:52 | 42.00642 | -84.71577 | 24133 ft | 429 kts | 357° |
| 2026-05-04 21:52 | 42.03627 | -84.71451 | 23880 ft | 429 kts | 356° |
| 2026-05-04 21:53 | 42.06613 | -84.71326 | 23628 ft | 428 kts | 356° |
| 2026-05-04 21:53 | 42.09587 | -84.71195 | 23420 ft | 428 kts | 356° |
| 2026-05-04 21:53 | 42.12552 | -84.71058 | 23189 ft | 426 kts | 356° |
| 2026-05-04 21:53 | 42.15514 | -84.70925 | 22937 ft | 425 kts | 356° |
| 2026-05-04 21:54 | 42.18425 | -84.70795 | 22693 ft | 424 kts | 356° |
| 2026-05-04 21:54 | 42.21370 | -84.70659 | 22440 ft | 422 kts | 356° |
| 2026-05-04 21:54 | 42.24302 | -84.70522 | 22195 ft | 421 kts | 356° |
| 2026-05-04 21:54 | 42.27228 | -84.70378 | 21941 ft | 420 kts | 356° |
| 2026-05-04 21:55 | 42.30138 | -84.70242 | 21687 ft | 417 kts | 356° |
| 2026-05-04 21:55 | 42.33007 | -84.69877 | 21219 ft | 414 kts | 5° |
| 2026-05-04 21:55 | 42.35791 | -84.68856 | 20696 ft | 416 kts | 15° |
| 2026-05-04 21:55 | 42.38435 | -84.67270 | 20166 ft | 416 kts | 20° |
| 2026-05-04 21:56 | 42.41040 | -84.65615 | 19662 ft | 411 kts | 20° |
| 2026-05-04 21:56 | 42.43584 | -84.64007 | 19178 ft | 407 kts | 19° |
| 2026-05-04 21:56 | 42.46141 | -84.62399 | 18683 ft | 404 kts | 19° |
| 2026-05-04 21:56 | 42.48678 | -84.60805 | 18186 ft | 401 kts | 19° |
| 2026-05-04 21:57 | 42.51198 | -84.59218 | 17692 ft | 398 kts | 19° |
| 2026-05-04 21:57 | 42.53701 | -84.57637 | 17189 ft | 396 kts | 19° |
| 2026-05-04 21:57 | 42.56195 | -84.56059 | 16740 ft | 393 kts | 19° |
| 2026-05-04 21:57 | 42.58635 | -84.54507 | 16538 ft | 383 kts | 19° |
| 2026-05-04 21:58 | 42.60230 | -84.53492 | 16216 ft | 382 kts | 19° |
| 2026-05-04 21:58 | 42.63423 | -84.51471 | 15528 ft | 382 kts | 19° |
| 2026-05-04 21:58 | 42.65831 | -84.49949 | 15001 ft | 382 kts | 19° |
| 2026-05-04 21:58 | 42.68242 | -84.48420 | 14464 ft | 382 kts | 19° |
| 2026-05-04 21:59 | 42.70654 | -84.46888 | 13928 ft | 383 kts | 19° |
| 2026-05-04 21:59 | 42.73033 | -84.45239 | 13384 ft | 388 kts | 27° |
| 2026-05-04 21:59 | 42.74464 | -84.43755 | 13012 ft | 393 kts | 38° |
| 2026-05-04 21:59 | 42.76231 | -84.40896 | 12448 ft | 399 kts | 56° |
| 2026-05-04 22:00 | 42.77397 | -84.37474 | 11869 ft | 401 kts | 73° |
| 2026-05-04 22:00 | 42.77866 | -84.32519 | 11086 ft | 398 kts | 93° |
| 2026-05-04 22:00 | 42.77805 | -84.28762 | 10638 ft | 393 kts | 94° |
| 2026-05-04 22:00 | 42.77748 | -84.25108 | 10508 ft | 379 kts | 94° |
| 2026-05-04 22:01 | 42.77700 | -84.21629 | 10373 ft | 356 kts | 94° |
| 2026-05-04 22:01 | 42.77671 | -84.19447 | 10236 ft | 342 kts | 94° |
| 2026-05-04 22:01 | 42.77626 | -84.16250 | 9846 ft | 336 kts | 94° |
| 2026-05-04 22:01 | 42.77577 | -84.13110 | 9712 ft | 329 kts | 94° |
| 2026-05-04 22:02 | 42.77522 | -84.09994 | 9393 ft | 331 kts | 94° |
| 2026-05-04 22:02 | 42.77452 | -84.05900 | 9157 ft | 318 kts | 94° |
| 2026-05-04 22:02 | 42.77420 | -84.03905 | 9029 ft | 306 kts | 94° |
| 2026-05-04 22:02 | 42.77374 | -84.01099 | 8853 ft | 289 kts | 95° |
| 2026-05-04 22:03 | 42.77331 | -83.98426 | 8462 ft | 284 kts | 95° |
| 2026-05-04 22:03 | 42.77283 | -83.95758 | 8027 ft | 280 kts | 95° |
| 2026-05-04 22:03 | 42.77234 | -83.93128 | 7589 ft | 277 kts | 95° |
| 2026-05-04 22:03 | 42.77185 | -83.90525 | 7138 ft | 274 kts | 95° |
| 2026-05-04 22:04 | 42.77132 | -83.87944 | 6671 ft | 272 kts | 95° |
| 2026-05-04 22:04 | 42.77081 | -83.85373 | 6211 ft | 271 kts | 95° |
| 2026-05-04 22:04 | 42.77034 | -83.82824 | 5788 ft | 268 kts | 95° |
| 2026-05-04 22:04 | 42.76989 | -83.80310 | 5338 ft | 264 kts | 95° |
| 2026-05-04 22:05 | 42.77120 | -83.77823 | 4874 ft | 267 kts | 75° |
| 2026-05-04 22:05 | 42.78004 | -83.75649 | 4460 ft | 271 kts | 46° |
| 2026-05-04 22:05 | 42.79597 | -83.74249 | 3826 ft | 278 kts | 12° |
| 2026-05-04 22:05 | 42.81460 | -83.74001 | 3511 ft | 263 kts | 355° |
| 2026-05-04 22:06 | 42.83273 | -83.74026 | 3024 ft | 259 kts | 355° |
| 2026-05-04 22:06 | 42.85027 | -83.74058 | 2606 ft | 243 kts | 355° |
| 2026-05-04 22:06 | 42.86617 | -83.74087 | 2486 ft | 213 kts | 354° |
| 2026-05-04 22:06 | 42.88005 | -83.74112 | 2337 ft | 189 kts | 354° |
| 2026-05-04 22:07 | 42.89276 | -83.74142 | 1997 ft | 175 kts | 355° |
| 2026-05-04 22:07 | 42.90433 | -83.74166 | 1737 ft | 164 kts | 354° |
| 2026-05-04 22:07 | 42.91545 | -83.74191 | 1518 ft | 156 kts | 354° |
| 2026-05-04 22:07 | 42.92624 | -83.74215 | 1306 ft | 154 kts | 354° |
| 2026-05-04 22:08 | 42.93674 | -83.74239 | 1082 ft | 147 kts | 353° |
| 2026-05-04 22:08 | 42.94705 | -83.74285 | 894 ft | 149 kts | 353° |
| 2026-05-04 22:08 | 42.95719 | -83.74303 | 775 ft | 136 kts | 356° |
| 2026-05-04 22:08 | 42.96509 | -83.74329 | 776 ft | 89 kts | 359° |
| 2026-05-04 22:09 | 42.96917 | -83.74338 | 773 ft | 32 kts | 359° |
| 2026-05-04 22:09 | 42.97048 | -83.74304 | 773 ft | 10 kts | 63° |
| 2026-05-04 22:09 | 42.97050 | -83.74234 | 773 ft | 6 kts | 88° |
| 2026-05-04 22:09 | 42.97071 | -83.74193 | 773 ft | 5 kts | 38° |
| 2026-05-04 22:10 | 42.97100 | -83.74188 | 773 ft | 4 kts | 0° |
| 2026-05-04 22:10 | 42.97126 | -83.74186 | 773 ft | 5 kts | 15° |
| 2026-05-04 22:10 | 42.97140 | -83.74128 | 773 ft | 9 kts | 78° |
| 2026-05-04 22:10 | 42.97137 | -83.74033 | 773 ft | 7 kts | 98° |
| 2026-05-04 22:11 | 42.97135 | -83.73998 | 773 ft | 2 kts | 85° |
| 2026-05-04 22:11 | 42.97150 | -83.73979 | 773 ft | 6 kts | 36° |
| 2026-05-04 22:11 | 42.97174 | -83.73955 | 773 ft | 2 kts | 35° |
| 2026-05-04 22:11 | 42.97181 | -83.73949 | 773 ft | 0 kts | 35° |
| 2026-05-04 22:12 | 42.97186 | -83.73944 | 773 ft | 2 kts | 34° |
| 2026-05-04 22:12 | 42.97188 | -83.73943 | 773 ft | 0 kts | 34° |